Grant, CO (80448)

10:33 PM MDT on August 22, 2014 (GMT -0600)
RAWS KENOSHA PASS CO US | Change Station
CLOSE
Current Station
Personal Weather Station
Location: Grant, CO
Elevation: 10200 ft
Nearby Weather Stations

Elev 10200 ft 39.41 °N, 105.75 °W | Updated 39 minutes ago

Mostly Cloudy
Mostly Cloudy
43 °F
Feels Like 43 °F
N
2
Wind Variable Wind from South
Gusts 4.0 mph

Today
High -- | Low -- °F
--% Chance of Precip.
Yesterday
High -- | Low -- °F
Precip. -- in
6:22 AM 7:48 PM
Waning Crescent, 5% visible
Pressure 30.48 in
Visibility 10.0 miles
Clouds Scattered Clouds 5000 ft
Mostly Cloudy 6500 ft
Windchill 43 °F
Dew Point 42 °F
Humidity 96%
Rainfall 0.30 in
Snow Depth 0 in , 0 in , 0 in
UV 0 out of 12
Pollen 9.60 out of 12
Air Quality Not available.
Flu Activity Not available.
METAR K0CO 230415Z AUTO 24005KT 10SM SCT050 BKN065 03/03 A3048 RMK AO2 LTG DSNT W THRU NE

More Conditions Fewer Conditions

Pressure 30.48 in
Visibility 10.0 miles
Clouds Scattered Clouds 5000 ft
Mostly Cloudy 6500 ft
Windchill 43 °F
Dew Point 42 °F
Humidity 96%
Rainfall 0.30 in
Snow Depth 0 in , 0 in , 0 in
UV 0 out of 12
Pollen 9.60 out of 12
Air Quality Not available.
Flu Activity Not available.
METAR K0CO 230415Z AUTO 24005KT 10SM SCT050 BKN065 03/03 A3048 RMK AO2 LTG DSNT W THRU NE

More Conditions Fewer Conditions

10-Day Weather Forecast

Almanac

Astronomy

Aug. 22, 2014 Rise Set
Actual Time 6:22 AM MDT 7:48 PM MDT
Civil Twilight 5:53 AM MDT 8:16 PM MDT
Nautical Twilight 5:19 AM MDT 8:50 PM MDT
Astronomical Twilight 4:44 AM MDT 9:26 PM MDT
Moon 3:47 AM MDT (8/22) 5:58 PM MDT (8/22)
Length of Visible Light 14h 23m
Length of Day
13h 26m
Tomorrow will be 2m 23s shorter.
Waning Crescent, 5% of the Moon is Illuminated
Aug 23
Waning Crescent
Aug 25
New
Sep 2
First Quarter
Sep 8
Full
Sep 15
Last Quarter

Today's Extremes

State Highs State Lows

Community

WunderPhotos

Upload Photos

1,746,362 photos uploaded!

WunderBlogs® & News

By Dr. Jeff Masters
Director of Meteorology, Weather Underground
By Kari Strenfel
Meteorologist, Weather Underground
By Christopher C. Burt
Weather Historian, Weather Underground
August 23, 2014
August 22, 2014
August 22, 2014

Nearby

Snow Depth

Station Depth Elevation
Jackwhacker Gulch 0 in 10960 ft
Michigan Creek 0 in 10600 ft
Grizzly Peak 0 in 11100 ft
Echo Lake 0 in 10600 ft
Hoosier Pass 0 in 11400 ft

Earthquake Activity

City Distance Mag. Time & Date
No recent earthquake activity has been reported nearby.
Minimum magnitude displayed is 2.5.

Coastal Water Temperatures

Place Temperature
No Stations Reporting

Nearby Weather Stations